createdAt,value
2019-04-27T00:00:07.507Z,81.02
2019-04-27T00:01:10.566Z,81.12
2019-04-27T00:02:07.497Z,80.82
2019-04-27T00:03:07.491Z,80.04
2019-04-27T00:04:07.468Z,80.45
2019-04-27T00:05:07.458Z,80.55
2019-04-27T00:06:08.590Z,80.76
2019-04-27T00:07:07.447Z,80.15
2019-04-27T00:08:07.419Z,80.55
2019-04-27T00:09:07.628Z,80.55
2019-04-27T00:10:07.405Z,80.96
2019-04-27T00:11:08.770Z,80.96
2019-04-27T00:12:07.389Z,80.55
2019-04-27T00:13:07.385Z,80.69
2019-04-27T00:14:10.406Z,80.55
2019-04-27T00:15:08.350Z,80.96
2019-04-27T00:16:09.893Z,80.65
2019-04-27T00:17:07.324Z,80.55
2019-04-27T00:18:09.322Z,80.35
2019-04-27T00:19:08.303Z,80.35
2019-04-27T00:20:07.299Z,80.45
2019-04-27T00:21:07.286Z,80.24
2019-04-27T00:22:07.275Z,79.94
2019-04-27T00:23:07.264Z,79.33
2019-04-27T00:24:07.268Z,79.57
2019-04-27T00:25:07.238Z,79.47
2019-04-27T00:26:07.227Z,79.23
2019-04-27T00:27:07.224Z,79.88
2019-04-27T00:28:07.207Z,80.04
2019-04-27T00:29:07.222Z,80.24
2019-04-27T00:30:07.192Z,79.84
2019-04-27T00:31:07.175Z,79.74
2019-04-27T00:32:07.172Z,79.68
2019-04-27T00:33:07.153Z,79.02
2019-04-27T00:34:07.144Z,79.16
2019-04-27T00:35:07.145Z,79.27
2019-04-27T00:36:07.125Z,79.16
2019-04-27T00:37:07.118Z,79.63
2019-04-27T00:38:07.105Z,79.13
2019-04-27T00:39:07.098Z,78.72
2019-04-27T00:40:07.092Z,78.86
2019-04-27T00:41:07.073Z,78.96
2019-04-27T00:42:07.067Z,78.86
2019-04-27T00:43:07.055Z,79.27
2019-04-27T00:44:07.036Z,78.92
2019-04-27T00:45:07.033Z,78.82
2019-04-27T00:46:07.023Z,79.02
2019-04-27T00:47:07.010Z,79.23
2019-04-27T00:48:06.999Z,78.86
2019-04-27T00:49:06.984Z,78.82
2019-04-27T00:50:06.973Z,79.33
2019-04-27T00:51:06.970Z,79.16
2019-04-27T00:52:06.950Z,78.86
2019-04-27T00:53:06.951Z,78.86
2019-04-27T00:54:06.936Z,79.13
2019-04-27T00:55:06.925Z,79.77
2019-04-27T00:56:06.921Z,79.33
2019-04-27T00:57:06.902Z,79.13
2019-04-27T00:58:06.887Z,79.13
2019-04-27T00:59:06.884Z,79.02
2019-04-27T01:00:06.876Z,78.92
2019-04-27T01:01:06.882Z,78.92
2019-04-27T01:02:06.847Z,78.92
2019-04-27T01:03:06.838Z,78.62
2019-04-27T01:04:06.824Z,78.41
2019-04-27T01:05:06.831Z,78.35
2019-04-27T01:06:06.806Z,79.06
2019-04-27T01:07:06.801Z,79.16
2019-04-27T01:08:06.780Z,79.47
2019-04-27T01:09:06.774Z,78.96
2019-04-27T01:10:06.765Z,78.96
2019-04-27T01:11:06.748Z,79.27
2019-04-27T01:12:06.747Z,78.92
2019-04-27T01:13:06.726Z,79.02
2019-04-27T01:14:06.716Z,78.52
2019-04-27T01:15:06.708Z,78.72
2019-04-27T01:16:08.524Z,78.92
2019-04-27T01:17:08.483Z,79.43
2019-04-27T01:18:13.267Z,79.23
2019-04-27T01:19:08.483Z,79.13
2019-04-27T01:20:06.652Z,78.92
2019-04-27T01:21:06.639Z,79.43
2019-04-27T01:22:06.646Z,79.23
2019-04-27T01:23:06.620Z,79.33
2019-04-27T01:24:06.614Z,79.74
2019-04-27T01:25:06.599Z,79.13
2019-04-27T01:26:06.592Z,79.33
2019-04-27T01:27:06.592Z,79.33
2019-04-27T01:28:06.572Z,79.77
2019-04-27T01:29:06.554Z,79.98
2019-04-27T01:30:06.553Z,79.16
2019-04-27T01:31:06.535Z,79.68
2019-04-27T01:32:06.540Z,79.77
2019-04-27T01:33:06.526Z,79.88
2019-04-27T01:34:06.506Z,79.88
2019-04-27T01:35:06.503Z,80.18
2019-04-27T01:36:06.485Z,80.29
2019-04-27T01:37:06.469Z,79.63
2019-04-27T01:38:06.459Z,80.15
2019-04-27T01:39:06.484Z,80.18
2019-04-27T01:40:06.442Z,80.04
2019-04-27T01:41:06.429Z,79.84
2019-04-27T01:42:06.418Z,79.57
2019-04-27T01:43:06.405Z,79.47
2019-04-27T01:44:06.394Z,79.77
2019-04-27T01:45:06.393Z,79.98
2019-04-27T01:46:06.389Z,80.08
2019-04-27T01:47:06.362Z,80.59
2019-04-27T01:48:06.351Z,81.10
2019-04-27T01:49:06.347Z,80.99
2019-04-27T01:50:06.358Z,80.79
2019-04-27T01:51:06.325Z,80.79
2019-04-27T01:52:06.308Z,80.79
2019-04-27T01:53:06.304Z,80.79
2019-04-27T01:54:06.286Z,80.38
2019-04-27T01:55:06.279Z,80.29
2019-04-27T01:56:06.280Z,80.38
2019-04-27T01:57:06.281Z,80.38
2019-04-27T01:58:06.249Z,80.99
2019-04-27T01:59:06.247Z,80.90
2019-04-27T02:00:06.226Z,80.79
2019-04-27T02:01:06.220Z,80.69
2019-04-27T02:02:06.206Z,81.10
2019-04-27T02:03:06.199Z,80.99
2019-04-27T02:04:06.190Z,80.52
2019-04-27T02:05:06.169Z,80.52
2019-04-27T02:06:06.172Z,81.10
2019-04-27T02:07:06.150Z,81.04
2019-04-27T02:08:06.137Z,81.20
2019-04-27T02:09:06.131Z,81.20
2019-04-27T02:10:06.120Z,81.30
2019-04-27T02:11:06.152Z,81.20
2019-04-27T02:12:06.096Z,80.90
2019-04-27T02:13:06.091Z,81.10
2019-04-27T02:14:06.072Z,80.90
2019-04-27T02:15:06.068Z,81.10
2019-04-27T02:16:06.058Z,81.24
2019-04-27T02:17:06.050Z,80.46
2019-04-27T02:18:06.030Z,81.48
2019-04-27T02:19:06.038Z,81.58
2019-04-27T02:20:06.008Z,81.88
2019-04-27T02:21:06.003Z,81.27
2019-04-27T02:22:05.996Z,81.58
2019-04-27T02:23:05.975Z,81.38
2019-04-27T02:24:05.974Z,81.58
2019-04-27T02:25:05.960Z,81.07
2019-04-27T02:26:05.949Z,80.56
2019-04-27T02:27:06.056Z,81.07
2019-04-27T02:28:05.922Z,80.56
2019-04-27T02:29:05.914Z,80.87
2019-04-27T02:30:05.909Z,80.70
2019-04-27T02:31:05.897Z,81.27
2019-04-27T02:32:05.885Z,80.77
2019-04-27T02:33:05.910Z,81.17
2019-04-27T02:34:05.864Z,81.17
2019-04-27T02:35:05.858Z,81.31
2019-04-27T02:36:05.844Z,81.21
2019-04-27T02:37:05.831Z,80.77
2019-04-27T02:38:05.817Z,80.77
2019-04-27T02:39:05.819Z,80.56
2019-04-27T02:40:05.810Z,80.36
2019-04-27T02:41:05.789Z,80.36
2019-04-27T02:42:05.791Z,80.26
2019-04-27T02:43:05.762Z,79.85
2019-04-27T02:44:05.788Z,79.85
2019-04-27T02:45:05.747Z,80.70
2019-04-27T02:46:05.730Z,80.50
2019-04-27T02:47:05.721Z,81.01
2019-04-27T02:48:05.708Z,81.01
2019-04-27T02:49:07.180Z,80.91
2019-04-27T02:50:05.697Z,80.70
2019-04-27T02:51:05.682Z,80.60
2019-04-27T02:52:05.669Z,80.77
2019-04-27T02:53:05.654Z,80.46
2019-04-27T02:54:05.654Z,80.56
2019-04-27T02:55:05.660Z,80.56
2019-04-27T02:56:05.621Z,80.46
2019-04-27T02:57:05.616Z,80.05
2019-04-27T02:58:05.609Z,79.85
2019-04-27T02:59:05.619Z,79.95
2019-04-27T03:00:05.577Z,79.95
2019-04-27T03:01:05.576Z,79.34
2019-04-27T03:02:05.560Z,79.34
2019-04-27T03:03:05.544Z,79.24
2019-04-27T03:04:05.533Z,79.41
2019-04-27T03:05:05.525Z,79.41
2019-04-27T03:06:05.526Z,79.30
2019-04-27T03:07:05.519Z,78.80
2019-04-27T03:08:05.501Z,79.34
2019-04-27T03:09:05.484Z,78.93
2019-04-27T03:10:05.477Z,79.17
2019-04-27T03:11:05.473Z,79.64
2019-04-27T03:12:05.456Z,79.75
2019-04-27T03:13:05.437Z,79.85
2019-04-27T03:14:05.432Z,79.85
2019-04-27T03:15:05.430Z,79.48
2019-04-27T03:16:05.405Z,79.48
2019-04-27T03:17:05.406Z,79.85
2019-04-27T03:18:05.381Z,79.44
2019-04-27T03:19:14.680Z,79.34
2019-04-27T03:20:06.373Z,79.34
2019-04-27T03:21:05.363Z,79.24
2019-04-27T03:22:05.338Z,78.93
2019-04-27T03:23:05.329Z,78.93
2019-04-27T03:24:05.317Z,78.73
2019-04-27T03:25:05.306Z,78.87
2019-04-27T03:26:05.308Z,79.07
2019-04-27T03:27:05.284Z,79.54
2019-04-27T03:28:05.280Z,79.14
2019-04-27T03:29:05.263Z,78.83
2019-04-27T03:30:05.257Z,78.83
2019-04-27T03:31:05.279Z,78.63
2019-04-27T03:32:05.270Z,79.38
2019-04-27T03:33:05.227Z,79.48
2019-04-27T03:34:05.970Z,79.58
2019-04-27T03:35:05.206Z,79.79
2019-04-27T03:36:05.210Z,80.09
2019-04-27T03:37:05.198Z,79.58
2019-04-27T03:38:05.168Z,80.09
2019-04-27T03:39:05.161Z,79.99
2019-04-27T03:40:05.154Z,79.79
2019-04-27T03:41:05.133Z,80.19
2019-04-27T03:42:05.169Z,79.95
2019-04-27T03:43:05.111Z,79.99
2019-04-27T03:44:05.106Z,79.99
2019-04-27T03:45:05.090Z,79.79
2019-04-27T03:46:05.079Z,79.27
2019-04-27T03:47:05.074Z,79.89
2019-04-27T03:48:05.072Z,79.89
2019-04-27T03:49:05.055Z,80.29
2019-04-27T03:50:05.043Z,80.84
2019-04-27T03:51:05.029Z,80.84
2019-04-27T03:52:05.025Z,80.84
2019-04-27T03:53:05.012Z,81.35
2019-04-27T03:54:05.013Z,81.90
2019-04-27T03:55:04.988Z,81.29
2019-04-27T03:56:04.975Z,81.80
2019-04-27T03:57:04.965Z,81.90
2019-04-27T03:58:04.949Z,81.45
2019-04-27T03:59:04.986Z,81.15
2019-04-27T04:00:04.985Z,81.45
2019-04-27T04:01:04.918Z,81.45
2019-04-27T04:02:04.910Z,81.56
2019-04-27T04:03:04.901Z,81.72
2019-04-27T04:04:04.888Z,81.31
2019-04-27T04:05:04.883Z,81.31
2019-04-27T04:06:04.863Z,81.01
2019-04-27T04:07:04.856Z,81.15
2019-04-27T04:08:04.845Z,81.45
2019-04-27T04:09:04.833Z,81.66
2019-04-27T04:10:04.835Z,81.45
2019-04-27T04:11:04.815Z,81.35
2019-04-27T04:12:04.803Z,80.74
2019-04-27T04:13:04.786Z,81.25
2019-04-27T04:14:04.784Z,81.45
2019-04-27T04:15:04.806Z,81.25
2019-04-27T04:16:07.660Z,81.15
2019-04-27T04:17:04.747Z,81.21
2019-04-27T04:18:04.735Z,81.31
2019-04-27T04:19:04.732Z,81.21
2019-04-27T04:20:04.716Z,81.41
2019-04-27T04:21:04.709Z,80.80
2019-04-27T04:22:04.692Z,80.64
2019-04-27T04:23:04.680Z,80.94
2019-04-27T04:24:04.681Z,81.56
2019-04-27T04:25:04.678Z,81.25
2019-04-27T04:26:11.708Z,81.25
2019-04-27T04:27:04.643Z,81.45
2019-04-27T04:28:04.625Z,81.15
2019-04-27T04:29:04.620Z,81.15
2019-04-27T04:30:04.612Z,81.15
2019-04-27T04:31:04.592Z,81.21
2019-04-27T04:32:04.601Z,81.01
2019-04-27T04:33:04.574Z,80.40
2019-04-27T04:34:04.563Z,80.50
2019-04-27T04:35:04.553Z,80.50
2019-04-27T04:36:04.539Z,80.46
2019-04-27T04:37:04.536Z,80.56
2019-04-27T04:38:04.521Z,80.05
2019-04-27T04:39:04.505Z,79.99
2019-04-27T04:40:04.501Z,80.26
2019-04-27T04:41:04.491Z,80.05
2019-04-27T04:42:04.477Z,79.85
2019-04-27T04:43:04.476Z,79.95
2019-04-27T04:44:04.454Z,79.95
2019-04-27T04:45:04.450Z,80.09
2019-04-27T04:46:04.992Z,80.26
2019-04-27T04:47:04.450Z,80.50
2019-04-27T04:48:04.442Z,80.50
2019-04-27T04:49:04.398Z,80.66
2019-04-27T04:50:11.276Z,80.46
2019-04-27T04:51:05.375Z,80.26
2019-04-27T04:52:04.376Z,80.46
2019-04-27T04:53:04.369Z,79.89
2019-04-27T04:54:04.385Z,80.56
2019-04-27T04:55:04.337Z,80.80
2019-04-27T04:56:04.331Z,81.31
2019-04-27T04:57:04.311Z,81.31
2019-04-27T04:58:04.304Z,81.11
2019-04-27T04:59:04.298Z,81.01
2019-04-27T05:00:04.293Z,81.17
2019-04-27T05:01:04.271Z,81.38
2019-04-27T05:02:04.261Z,82.29
2019-04-27T05:03:04.251Z,81.38
2019-04-27T05:04:04.271Z,82.87
2019-04-27T05:05:04.232Z,82.26
2019-04-27T05:06:04.214Z,81.91
2019-04-27T05:07:04.209Z,81.60
2019-04-27T05:08:04.211Z,80.18
2019-04-27T05:09:04.183Z,79.37
2019-04-27T05:10:04.187Z,78.76
2019-04-27T05:11:04.171Z,78.86
2019-04-27T05:12:04.152Z,79.16
2019-04-27T05:13:04.145Z,79.20
2019-04-27T05:14:04.131Z,79.47
2019-04-27T05:15:04.134Z,79.16
2019-04-27T05:16:04.112Z,79.06
2019-04-27T05:17:04.099Z,79.37
2019-04-27T05:18:04.083Z,78.66
2019-04-27T05:19:04.072Z,79.16
2019-04-27T05:20:04.078Z,79.06
2019-04-27T05:21:04.059Z,79.27
2019-04-27T05:22:04.050Z,79.06
2019-04-27T05:23:04.038Z,79.27
2019-04-27T05:24:04.033Z,79.16
2019-04-27T05:25:04.031Z,78.96
2019-04-27T05:26:04.003Z,78.96
2019-04-27T05:27:03.995Z,78.86
2019-04-27T05:28:03.991Z,78.76
2019-04-27T05:29:03.976Z,79.06
2019-04-27T05:30:03.959Z,79.16
2019-04-27T05:31:03.951Z,79.06
2019-04-27T05:32:03.938Z,79.06
2019-04-27T05:33:03.930Z,79.27
2019-04-27T05:34:06.710Z,78.96
2019-04-27T05:35:03.903Z,79.06
2019-04-27T05:36:03.933Z,78.96
2019-04-27T05:37:03.883Z,79.06
2019-04-27T05:38:07.464Z,79.47
2019-04-27T05:39:04.856Z,79.47
2019-04-27T05:40:03.852Z,79.47
2019-04-27T05:41:03.837Z,79.23
2019-04-27T05:42:16.927Z,79.33
2019-04-27T05:43:11.388Z,78.62
2019-04-27T05:44:13.035Z,78.82
2019-04-27T05:45:15.307Z,78.38
2019-04-27T05:47:13.576Z,78.28
2019-04-27T05:48:27.406Z,77.87
2019-04-27T05:50:35.501Z,77.67
2019-04-27T05:53:42.852Z,78.01
2019-04-27T05:54:50.574Z,78.72
2019-04-27T05:55:50.617Z,78.52
2019-04-27T05:56:42.856Z,78.52
2019-04-27T05:57:49.875Z,79.13
2019-04-27T05:58:51.228Z,79.43
2019-04-27T05:59:50.715Z,79.02
2019-04-27T06:00:42.761Z,78.99
2019-04-27T06:01:50.751Z,79.02
2019-04-27T06:02:42.744Z,79.09
2019-04-27T06:03:42.754Z,78.48
2019-04-27T06:04:50.271Z,78.21
2019-04-27T06:05:50.320Z,78.68
2019-04-27T06:06:42.722Z,78.68
2019-04-27T06:07:50.351Z,78.28
2019-04-27T06:08:49.752Z,78.34
2019-04-27T06:09:42.667Z,78.14
2019-04-27T06:10:42.657Z,77.33
2019-04-27T06:11:42.642Z,77.39
2019-04-27T06:12:42.637Z,76.48
2019-04-27T06:13:42.620Z,76.58
2019-04-27T06:14:42.654Z,75.67
2019-04-27T06:15:42.599Z,75.67
2019-04-27T06:16:42.586Z,75.26
2019-04-27T06:17:42.576Z,75.05
2019-04-27T06:18:42.564Z,75.32
2019-04-27T06:19:43.922Z,75.22
2019-04-27T06:20:51.207Z,74.92
2019-04-27T06:21:43.537Z,74.82
2019-04-27T06:22:42.527Z,73.19
2019-04-27T06:23:42.515Z,74.82
2019-04-27T06:24:42.529Z,74.51
2019-04-27T06:25:42.495Z,74.62
2019-04-27T06:26:42.493Z,74.68
2019-04-27T06:27:42.480Z,74.78
2019-04-27T06:28:42.458Z,74.58
2019-04-27T06:29:42.446Z,74.68
2019-04-27T06:30:42.451Z,73.97
2019-04-27T06:31:42.429Z,74.85
2019-04-27T06:32:42.422Z,74.04
2019-04-27T06:33:42.405Z,73.70
2019-04-27T06:34:42.401Z,73.43
2019-04-27T06:35:42.406Z,73.70
2019-04-27T06:36:42.367Z,73.39
2019-04-27T06:37:42.370Z,72.89
2019-04-27T06:38:42.344Z,73.39
2019-04-27T06:39:42.339Z,73.70
2019-04-27T06:40:42.329Z,73.49
2019-04-27T06:41:42.321Z,73.12
2019-04-27T06:42:42.323Z,72.61
2019-04-27T06:43:42.297Z,73.60
2019-04-27T06:44:42.280Z,72.61
2019-04-27T06:45:42.275Z,73.33
2019-04-27T06:46:42.265Z,72.65
2019-04-27T06:47:42.284Z,73.53
2019-04-27T06:48:42.241Z,73.46
2019-04-27T06:49:42.233Z,73.57
2019-04-27T06:50:42.214Z,74.48
2019-04-27T06:51:42.208Z,74.34
2019-04-27T06:52:42.193Z,74.68
2019-04-27T06:53:42.195Z,74.88
2019-04-27T06:54:42.182Z,73.26
2019-04-27T06:55:42.164Z,74.48
2019-04-27T06:56:42.149Z,74.48
2019-04-27T06:57:42.153Z,74.14
2019-04-27T06:58:42.138Z,74.95
2019-04-27T06:59:42.116Z,74.04
2019-04-27T07:00:42.112Z,72.92
2019-04-27T07:01:42.099Z,73.43
2019-04-27T07:02:42.083Z,73.43
2019-04-27T07:03:42.113Z,74.14
2019-04-27T07:04:42.067Z,73.22
2019-04-27T07:05:42.060Z,73.26
2019-04-27T07:06:53.210Z,74.68
2019-04-27T07:07:43.028Z,74.71
2019-04-27T07:08:42.017Z,74.71
2019-04-27T07:09:42.028Z,75.02
2019-04-27T07:10:42.008Z,74.82
2019-04-27T07:11:41.995Z,74.62
2019-04-27T07:12:41.991Z,74.58
2019-04-27T07:13:41.967Z,74.38
2019-04-27T07:14:52.919Z,74.68
2019-04-27T07:15:42.946Z,73.33
2019-04-27T07:16:41.930Z,73.53
2019-04-27T07:17:41.925Z,73.02
2019-04-27T07:18:41.922Z,73.09
2019-04-27T07:19:41.945Z,72.68
2019-04-27T07:20:41.895Z,71.33
2019-04-27T07:21:41.875Z,71.73
2019-04-27T07:22:41.869Z,71.73
2019-04-27T07:23:41.862Z,72.72
2019-04-27T07:24:41.856Z,71.91
2019-04-27T07:25:41.846Z,71.09
2019-04-27T07:26:41.827Z,71.00
2019-04-27T07:27:41.815Z,69.98
2019-04-27T07:28:41.810Z,69.10
2019-04-27T07:29:44.587Z,70.12
2019-04-27T07:30:41.802Z,70.12
2019-04-27T07:31:41.779Z,70.32
2019-04-27T07:32:41.759Z,70.62
2019-04-27T07:33:41.744Z,70.62
2019-04-27T07:34:41.735Z,71.03
2019-04-27T07:35:41.732Z,70.96
2019-04-27T07:36:41.729Z,71.06
2019-04-27T07:37:41.701Z,70.56
2019-04-27T07:38:41.691Z,71.30
2019-04-27T07:39:41.683Z,71.70
2019-04-27T07:40:42.078Z,71.60
2019-04-27T07:41:41.671Z,71.40
2019-04-27T07:42:41.646Z,73.57
2019-04-27T07:43:41.640Z,73.16
2019-04-27T07:44:41.627Z,73.12
2019-04-27T07:45:41.624Z,71.64
2019-04-27T07:46:41.632Z,71.64
2019-04-27T07:47:41.595Z,71.60
2019-04-27T07:48:41.584Z,72.31
2019-04-27T07:49:41.569Z,72.92
2019-04-27T07:50:41.563Z,72.72
2019-04-27T07:51:41.554Z,71.84
2019-04-27T07:52:41.561Z,71.94
2019-04-27T07:53:41.535Z,71.73
2019-04-27T07:54:41.517Z,71.64
2019-04-27T07:55:41.509Z,72.34
2019-04-27T07:56:41.498Z,72.82
2019-04-27T07:57:41.494Z,73.06
2019-04-27T07:58:41.475Z,72.75
2019-04-27T07:59:42.086Z,73.50
2019-04-27T08:00:41.459Z,73.80
2019-04-27T08:01:41.438Z,74.75
2019-04-27T08:02:41.453Z,74.68
2019-04-27T08:03:41.427Z,75.16
2019-04-27T08:04:41.404Z,75.26
2019-04-27T08:05:41.398Z,74.75
2019-04-27T08:06:41.388Z,74.95
2019-04-27T08:07:41.372Z,74.85
2019-04-27T08:08:41.383Z,74.65
2019-04-27T08:09:41.354Z,75.12
2019-04-27T08:10:41.343Z,74.62
2019-04-27T08:11:41.337Z,74.62
2019-04-27T08:12:41.336Z,73.60
2019-04-27T08:13:41.311Z,74.41
2019-04-27T08:14:41.304Z,74.88
2019-04-27T08:15:41.293Z,74.98
2019-04-27T08:16:41.280Z,74.65
2019-04-27T08:17:42.965Z,74.54
2019-04-27T08:18:41.255Z,73.39
2019-04-27T08:19:41.281Z,73.56
2019-04-27T08:20:41.227Z,71.94
2019-04-27T08:21:44.483Z,70.83
2019-04-27T08:22:42.206Z,70.39
2019-04-27T08:23:41.196Z,70.73
2019-04-27T08:24:41.184Z,69.48
2019-04-27T08:25:41.197Z,68.51
2019-04-27T08:26:41.163Z,66.86
2019-04-27T08:27:41.161Z,67.93
2019-04-27T08:28:41.142Z,66.39
2019-04-27T08:29:41.137Z,64.14
2019-04-27T08:30:41.135Z,62.93
2019-04-27T08:31:41.117Z,61.59
2019-04-27T08:32:41.565Z,62.60
2019-04-27T08:33:41.087Z,62.19
2019-04-27T08:34:41.075Z,61.89
2019-04-27T08:35:41.075Z,63.78
2019-04-27T08:36:41.180Z,61.73
2019-04-27T08:37:41.047Z,61.30
2019-04-27T08:38:41.031Z,61.40
2019-04-27T08:40:49.810Z,59.28
2019-04-27T08:41:49.779Z,60.22
2019-04-27T08:42:51.296Z,60.83
2019-04-27T08:43:49.758Z,61.73
2019-04-27T08:44:49.872Z,61.23
2019-04-27T08:45:49.740Z,61.86
2019-04-27T08:46:49.771Z,61.89
2019-04-27T08:47:50.071Z,61.89
2019-04-27T08:48:49.701Z,61.29
2019-04-27T08:49:49.690Z,61.92
2019-04-27T08:50:49.679Z,62.22
2019-04-27T08:51:57.233Z,62.22
2019-04-27T08:52:50.679Z,62.63
2019-04-27T08:53:50.100Z,62.83
2019-04-27T08:54:51.069Z,62.73
2019-04-27T08:55:52.645Z,63.23
2019-04-27T08:56:49.621Z,63.10
2019-04-27T08:57:49.624Z,63.50
2019-04-27T08:58:49.799Z,63.81
2019-04-27T08:59:51.115Z,63.23
2019-04-27T09:00:49.576Z,61.92
2019-04-27T09:01:49.562Z,61.89
2019-04-27T09:02:50.307Z,61.39
2019-04-27T09:03:49.654Z,60.98
2019-04-27T09:04:49.665Z,59.07
2019-04-27T09:05:49.538Z,60.48
2019-04-27T09:06:49.521Z,61.29
2019-04-27T09:07:49.772Z,60.58
2019-04-27T09:08:49.748Z,59.77
2019-04-27T09:09:49.853Z,59.47
2019-04-27T09:10:49.501Z,59.88
2019-04-27T09:11:49.524Z,59.55
2019-04-27T09:12:50.701Z,59.75
2019-04-27T09:13:49.445Z,59.62
2019-04-27T09:14:49.551Z,58.71
2019-04-27T09:15:49.543Z,59.72
2019-04-27T09:16:59.658Z,58.71
2019-04-27T09:17:50.390Z,59.64
2019-04-27T09:18:49.865Z,59.75
2019-04-27T09:19:49.382Z,59.77
2019-04-27T09:20:49.367Z,59.55
2019-04-27T09:21:49.365Z,59.64
2019-04-27T09:22:49.413Z,59.14
2019-04-27T09:23:49.331Z,59.75
2019-04-27T09:24:49.515Z,59.44
2019-04-27T09:25:49.695Z,58.54
2019-04-27T09:26:49.320Z,59.64
2019-04-27T09:27:49.435Z,57.35
2019-04-27T09:28:49.403Z,58.47
2019-04-27T09:29:49.950Z,59.50
2019-04-27T09:30:49.828Z,59.07
2019-04-27T09:31:49.245Z,58.06
2019-04-27T09:32:49.235Z,57.78
2019-04-27T09:33:49.222Z,57.86
2019-04-27T09:34:49.218Z,58.67
2019-04-27T09:35:49.213Z,58.36
2019-04-27T09:36:49.192Z,58.64
2019-04-27T09:37:49.182Z,58.23
2019-04-27T09:38:49.174Z,56.12
2019-04-27T09:39:49.154Z,55.79
2019-04-27T09:40:49.161Z,55.96
2019-04-27T09:41:49.138Z,56.57
2019-04-27T09:42:49.131Z,57.78
2019-04-27T09:43:49.122Z,56.27
2019-04-27T09:44:49.101Z,55.49
2019-04-27T09:45:49.126Z,56.29
2019-04-27T09:46:49.103Z,56.90
2019-04-27T09:47:49.087Z,56.49
2019-04-27T09:48:49.060Z,55.19
2019-04-27T09:49:49.056Z,56.09
2019-04-27T09:50:49.040Z,55.56
2019-04-27T09:51:49.040Z,56.54
2019-04-27T09:52:49.023Z,55.43
2019-04-27T09:53:49.012Z,54.53
2019-04-27T09:54:48.995Z,55.43
2019-04-27T09:55:48.996Z,55.51
2019-04-27T09:56:48.996Z,53.00
2019-04-27T09:57:48.967Z,52.01
2019-04-27T09:58:48.957Z,53.12
2019-04-27T09:59:48.944Z,53.32
2019-04-27T10:00:48.936Z,53.72
2019-04-27T10:01:48.920Z,54.53
2019-04-27T10:02:48.917Z,54.33
2019-04-27T10:03:48.900Z,53.72
2019-04-27T10:04:48.888Z,54.00
2019-04-27T10:05:48.884Z,54.60
2019-04-27T10:06:48.979Z,53.17
2019-04-27T10:07:48.869Z,53.88
2019-04-27T10:08:48.848Z,53.14
2019-04-27T10:09:48.854Z,53.65
2019-04-27T10:10:48.828Z,51.14
2019-04-27T10:11:48.818Z,51.01
2019-04-27T10:12:48.843Z,50.29
2019-04-27T10:13:48.791Z,49.08
2019-04-27T10:14:48.779Z,49.46
2019-04-27T10:15:48.770Z,49.05
2019-04-27T10:16:48.763Z,49.66
2019-04-27T10:17:48.765Z,49.36
2019-04-27T10:18:48.743Z,50.74
2019-04-27T10:19:48.734Z,47.33
2019-04-27T10:20:58.974Z,47.55
2019-04-27T10:21:49.708Z,47.65
2019-04-27T10:22:48.736Z,48.96
2019-04-27T10:23:48.691Z,48.53
2019-04-27T10:24:48.673Z,46.95
2019-04-27T10:25:48.666Z,47.55
2019-04-27T10:26:48.651Z,46.04
2019-04-27T10:27:48.648Z,46.42
2019-04-27T10:28:48.655Z,45.92
2019-04-27T10:29:48.634Z,46.50
2019-04-27T10:30:48.614Z,46.26
2019-04-27T10:31:48.604Z,45.76
2019-04-27T10:32:48.592Z,44.96
2019-04-27T10:33:48.577Z,45.46
2019-04-27T10:34:48.579Z,45.66
2019-04-27T10:35:48.557Z,44.96
2019-04-27T10:36:48.545Z,44.18
2019-04-27T10:37:48.537Z,44.98
2019-04-27T10:38:48.531Z,43.96
2019-04-27T10:39:48.530Z,44.96
2019-04-27T10:40:48.517Z,45.43
2019-04-27T10:41:48.540Z,44.96
2019-04-27T10:42:48.482Z,44.86
2019-04-27T10:43:48.724Z,45.46
2019-04-27T10:44:48.464Z,45.46
2019-04-27T10:45:48.450Z,43.80
2019-04-27T10:46:48.452Z,45.50
2019-04-27T10:47:49.600Z,46.11
2019-04-27T10:48:48.423Z,46.11
2019-04-27T10:49:48.578Z,46.58
2019-04-27T10:50:48.431Z,45.68
2019-04-27T10:51:48.401Z,44.96
2019-04-27T10:52:53.831Z,44.32
2019-04-27T10:53:49.476Z,42.87
2019-04-27T10:54:48.353Z,42.71
2019-04-27T10:55:48.352Z,41.66
2019-04-27T10:56:48.338Z,41.83
2019-04-27T10:57:48.340Z,41.63
2019-04-27T10:58:48.316Z,41.14
2019-04-27T10:59:48.307Z,41.06
2019-04-27T11:00:48.297Z,41.58
2019-04-27T11:01:48.281Z,42.10
2019-04-27T11:02:48.308Z,41.89
2019-04-27T11:03:48.266Z,41.89
2019-04-27T11:04:56.570Z,41.02
2019-04-27T11:05:48.239Z,42.71
2019-04-27T11:06:48.236Z,42.63
2019-04-27T11:07:48.221Z,41.05
2019-04-27T11:08:48.389Z,40.66
2019-04-27T11:09:48.205Z,41.88
2019-04-27T11:10:48.190Z,41.96
2019-04-27T11:11:48.210Z,42.77
2019-04-27T11:12:48.173Z,43.48
2019-04-27T11:13:48.156Z,43.95
2019-04-27T11:14:48.155Z,42.35
2019-04-27T11:15:48.134Z,40.47
2019-04-27T11:16:48.128Z,41.38
2019-04-27T11:17:48.172Z,43.07
2019-04-27T11:18:48.107Z,42.79
2019-04-27T11:19:48.101Z,43.48
2019-04-27T11:20:48.086Z,42.60
2019-04-27T11:21:48.074Z,42.27
2019-04-27T11:22:48.110Z,43.67
2019-04-27T11:23:48.053Z,42.57
2019-04-27T11:24:48.121Z,41.67
2019-04-27T11:25:48.033Z,41.77
2019-04-27T11:26:48.022Z,41.38
2019-04-27T11:27:48.010Z,41.60
2019-04-27T11:28:48.006Z,41.38
2019-04-27T11:29:47.991Z,42.07
2019-04-27T11:30:47.975Z,41.55
2019-04-27T11:31:47.967Z,41.31
2019-04-27T11:32:47.958Z,39.58
2019-04-27T11:33:47.950Z,41.66
2019-04-27T11:34:47.930Z,39.61
2019-04-27T11:35:47.922Z,38.20
2019-04-27T11:36:47.921Z,37.76
2019-04-27T11:37:47.898Z,36.08
2019-04-27T11:38:47.897Z,37.71
2019-04-27T11:39:47.885Z,36.74
2019-04-27T11:40:47.876Z,36.76
2019-04-27T11:41:47.864Z,37.87
2019-04-27T11:42:47.854Z,38.40
2019-04-27T11:43:47.839Z,39.92
2019-04-27T11:44:47.831Z,39.54
2019-04-27T11:45:47.829Z,40.53
2019-04-27T11:46:47.808Z,40.25
2019-04-27T11:47:47.797Z,41.44
2019-04-27T11:48:47.781Z,41.30
2019-04-27T11:49:47.776Z,40.08
2019-04-27T11:50:47.783Z,39.94
2019-04-27T11:51:47.757Z,38.63
2019-04-27T11:52:47.747Z,35.33
2019-04-27T11:53:47.745Z,36.14
2019-04-27T11:54:47.717Z,36.76
2019-04-27T11:55:47.713Z,36.35
2019-04-27T11:56:47.706Z,38.56
2019-04-27T11:57:47.702Z,39.06
2019-04-27T11:58:48.820Z,38.89
2019-04-27T11:59:47.666Z,38.67
2019-04-27T12:00:47.655Z,38.45
2019-04-27T12:01:47.650Z,37.55
2019-04-27T12:02:47.640Z,37.53
2019-04-27T12:03:47.652Z,37.71
2019-04-27T12:04:47.617Z,37.81
2019-04-27T12:05:47.609Z,37.28
2019-04-27T12:06:47.603Z,36.68
2019-04-27T12:07:47.965Z,35.64
2019-04-27T12:08:47.576Z,34.01
2019-04-27T12:09:48.099Z,34.13
2019-04-27T12:10:48.400Z,34.86
2019-04-27T12:11:47.543Z,35.39
2019-04-27T12:12:47.541Z,36.00
2019-04-27T12:13:47.525Z,36.12
2019-04-27T12:14:47.606Z,35.99
2019-04-27T12:15:47.505Z,34.17
2019-04-27T12:16:47.494Z,33.72
2019-04-27T12:17:47.482Z,34.73
2019-04-27T12:18:49.195Z,34.83
2019-04-27T12:19:47.458Z,32.38
2019-04-27T12:20:47.445Z,35.91
2019-04-27T12:21:47.449Z,36.14
2019-04-27T12:22:47.430Z,36.37
2019-04-27T12:23:47.420Z,36.69
2019-04-27T12:24:47.412Z,37.92
2019-04-27T12:25:47.399Z,37.44
2019-04-27T12:26:47.395Z,38.07
2019-04-27T12:27:47.378Z,39.93
2019-04-27T12:28:47.367Z,43.18
2019-04-27T12:29:47.405Z,41.88
2019-04-27T12:30:47.359Z,41.67
2019-04-27T12:31:49.125Z,42.88
2019-04-27T12:32:47.384Z,43.38
2019-04-27T12:34:56.545Z,43.40
2019-04-27T12:35:56.898Z,44.20
2019-04-27T12:36:56.061Z,43.82
2019-04-27T12:37:56.171Z,44.24
2019-04-27T12:38:56.649Z,45.26
2019-04-27T12:39:57.620Z,46.72
2019-04-27T12:40:56.542Z,47.62
2019-04-27T12:41:56.105Z,47.64
2019-04-27T12:42:56.003Z,47.94
2019-04-27T12:43:56.180Z,47.94
2019-04-27T12:44:55.974Z,47.94
2019-04-27T12:45:56.075Z,48.65
2019-04-27T12:46:57.737Z,48.35
2019-04-27T12:47:56.960Z,48.44
2019-04-27T12:48:57.263Z,48.35
2019-04-27T12:49:57.668Z,48.95
2019-04-27T12:50:56.421Z,48.65
2019-04-27T12:51:55.935Z,49.05
2019-04-27T12:52:55.899Z,49.27
2019-04-27T12:53:56.075Z,49.48
2019-04-27T12:54:55.871Z,49.57
2019-04-27T12:55:56.515Z,49.18
2019-04-27T12:56:55.982Z,50.08
2019-04-27T12:57:55.845Z,49.27
2019-04-27T12:58:56.467Z,48.77